createdAt,value
2022-10-13T00:00:15.102Z,98228.88
2022-10-13T00:02:42.203Z,98225.13
2022-10-13T00:05:09.563Z,98231.31
2022-10-13T00:07:36.802Z,98227.81
2022-10-13T00:10:04.240Z,98239.69
2022-10-13T00:12:35.877Z,98241.28
2022-10-13T00:15:05.110Z,98245.91
2022-10-13T00:17:32.208Z,98242.41
2022-10-13T00:19:59.418Z,98237.81
2022-10-13T00:22:27.810Z,98237.53
2022-10-13T00:24:54.905Z,98232.41
2022-10-13T00:27:22.042Z,98234.56
2022-10-13T00:29:50.544Z,98231.59
2022-10-13T00:32:18.433Z,98231.34
2022-10-13T00:34:45.794Z,98216.47
2022-10-13T00:37:13.054Z,98222.16
2022-10-13T00:39:40.261Z,98215.13
2022-10-13T00:42:10.380Z,98218.91
2022-10-13T00:45:19.752Z,98218.09
2022-10-13T00:47:50.136Z,98226.72
2022-10-13T00:50:21.008Z,98230.78
2022-10-13T00:52:49.408Z,98226.19
2022-10-13T00:55:20.123Z,98225.66
2022-10-13T00:57:50.521Z,98235.91
2022-10-13T01:00:19.012Z,98234.81
2022-10-13T01:03:06.770Z,98232.41
2022-10-13T01:05:34.493Z,98231.88
2022-10-13T01:08:02.331Z,98230.22
2022-10-13T01:10:40.178Z,98224.56
2022-10-13T01:13:17.064Z,98232.41
2022-10-13T01:15:54.326Z,98232.66
2022-10-13T01:18:26.654Z,98236.72
2022-10-13T01:21:15.872Z,98233.75
2022-10-13T01:24:20.692Z,98240.78
2022-10-13T01:27:04.695Z,98227.28
2022-10-13T01:30:02.823Z,98220.00
2022-10-13T01:32:35.324Z,98220.78
2022-10-13T01:35:08.398Z,98212.19
2022-10-13T01:37:45.726Z,98224.31
2022-10-13T01:40:19.475Z,98219.47
2022-10-13T01:42:54.420Z,98220.78
2022-10-13T01:45:26.535Z,98211.63
2022-10-13T01:47:54.061Z,98215.69
2022-10-13T01:50:21.954Z,98211.34
2022-10-13T01:52:50.563Z,98218.91
2022-10-13T01:55:17.676Z,98225.13
2022-10-13T01:57:45.197Z,98215.41
2022-10-13T02:00:15.162Z,98216.22
2022-10-13T02:02:53.801Z,98214.88
2022-10-13T02:05:27.475Z,98207.56
2022-10-13T02:08:01.201Z,98212.44
2022-10-13T02:10:34.849Z,98211.91
2022-10-13T02:13:04.412Z,98214.59
2022-10-13T02:15:37.218Z,98207.84
2022-10-13T02:18:07.920Z,98203.78
2022-10-13T02:20:36.602Z,98204.63
2022-10-13T02:23:09.134Z,98204.09
2022-10-13T02:25:36.744Z,98206.78
2022-10-13T02:28:04.886Z,98202.72
2022-10-13T02:30:33.480Z,98210.56
2022-10-13T02:33:00.738Z,98200.56
2022-10-13T02:35:29.325Z,98205.16
2022-10-13T02:37:56.650Z,98205.69
2022-10-13T02:40:23.911Z,98201.63
2022-10-13T02:42:51.005Z,98198.69
2022-10-13T02:45:18.309Z,98198.69
2022-10-13T02:47:45.423Z,98194.09
2022-10-13T02:50:12.598Z,98189.25
2022-10-13T02:52:41.106Z,98187.34
2022-10-13T02:55:08.949Z,98187.06
2022-10-13T02:57:36.305Z,98174.38
2022-10-13T03:00:05.215Z,98181.16
2022-10-13T03:02:32.392Z,98183.03
2022-10-13T03:04:59.497Z,98176.56
2022-10-13T03:07:26.712Z,98173.84
2022-10-13T03:09:55.129Z,98178.44
2022-10-13T03:12:22.633Z,98184.09
2022-10-13T03:14:50.141Z,98182.78
2022-10-13T03:17:17.534Z,98179.53
2022-10-13T03:19:44.656Z,98181.41
2022-10-13T03:22:11.811Z,98184.66
2022-10-13T03:24:38.908Z,98180.34
2022-10-13T03:27:07.431Z,98184.13
2022-10-13T03:29:34.553Z,98180.84
2022-10-13T03:32:01.752Z,98184.91
2022-10-13T03:34:29.309Z,98180.31
2022-10-13T03:36:56.468Z,98173.84
2022-10-13T03:39:23.580Z,98174.66
2022-10-13T03:41:50.686Z,98183.31
2022-10-13T03:44:19.176Z,98178.72
2022-10-13T03:46:46.271Z,98193.81
2022-10-13T03:49:13.379Z,98194.34
2022-10-13T03:51:40.595Z,98191.38
2022-10-13T03:54:09.500Z,98184.91
2022-10-13T03:56:36.616Z,98184.38
2022-10-13T03:59:03.826Z,98186.53
2022-10-13T04:01:33.622Z,98184.66
2022-10-13T04:04:01.835Z,98189.50
2022-10-13T04:06:29.874Z,98188.97
2022-10-13T04:08:57.672Z,98189.78
2022-10-13T04:11:25.029Z,98180.88
2022-10-13T04:13:52.352Z,98181.94
2022-10-13T04:16:21.324Z,98187.34
2022-10-13T04:18:53.549Z,98184.66
2022-10-13T04:21:21.500Z,98184.66
2022-10-13T04:23:48.779Z,98195.72
2022-10-13T04:26:17.451Z,98183.31
2022-10-13T04:28:44.933Z,98188.41
2022-10-13T04:31:12.172Z,98189.78
2022-10-13T04:33:39.424Z,98197.88
2022-10-13T04:36:10.969Z,98196.25
2022-10-13T04:38:38.309Z,98196.78
2022-10-13T04:41:06.713Z,98194.66
2022-10-13T04:43:34.348Z,98194.09
2022-10-13T04:46:01.593Z,98195.19
2022-10-13T04:48:28.748Z,98200.28
2022-10-13T04:50:59.955Z,98199.22
2022-10-13T04:53:28.727Z,98189.22
2022-10-13T04:55:56.022Z,98189.50
2022-10-13T04:58:23.328Z,98191.38
2022-10-13T05:00:50.984Z,98192.47
2022-10-13T05:03:18.109Z,98188.72
2022-10-13T05:05:45.499Z,98184.66
2022-10-13T05:08:12.646Z,98179.00
2022-10-13T05:10:41.204Z,98185.44
2022-10-13T05:13:08.398Z,98184.09
2022-10-13T05:15:38.925Z,98184.91
2022-10-13T05:18:06.058Z,98181.94
2022-10-13T05:20:33.155Z,98190.84
2022-10-13T05:23:00.398Z,98187.63
2022-10-13T05:25:31.593Z,98191.13
2022-10-13T05:28:04.354Z,98194.63
2022-10-13T05:30:31.589Z,98197.59
2022-10-13T05:32:58.678Z,98191.91
2022-10-13T05:35:26.103Z,98193.81
2022-10-13T05:37:53.318Z,98184.38
2022-10-13T05:40:20.427Z,98199.47
2022-10-13T05:42:48.163Z,98197.59
2022-10-13T05:45:18.191Z,98193.53
2022-10-13T05:47:45.325Z,98193.28
2022-10-13T05:50:12.438Z,98189.78
2022-10-13T05:52:40.018Z,98192.75
2022-10-13T05:55:09.852Z,98190.56
2022-10-13T05:57:39.986Z,98195.09
2022-10-13T06:00:09.384Z,98193.00
2022-10-13T06:02:42.502Z,98198.94
2022-10-13T06:05:14.304Z,98186.00
2022-10-13T06:07:42.095Z,98186.53
2022-10-13T06:10:09.779Z,98180.88
2022-10-13T06:12:37.120Z,98180.06
2022-10-13T06:15:05.034Z,98172.25
2022-10-13T06:17:32.293Z,98177.09
2022-10-13T06:20:00.750Z,98174.41
2022-10-13T06:22:27.839Z,98174.13
2022-10-13T06:24:55.058Z,98168.72
2022-10-13T06:27:22.139Z,98166.84
2022-10-13T06:29:49.246Z,98173.06
2022-10-13T06:32:16.393Z,98171.41
2022-10-13T06:34:43.505Z,98179.25
2022-10-13T06:37:11.942Z,98172.78
2022-10-13T06:39:39.098Z,98176.28
2022-10-13T06:42:06.334Z,98177.09
2022-10-13T06:44:33.515Z,98175.75
2022-10-13T06:47:00.634Z,98179.78
2022-10-13T06:49:27.719Z,98177.91
2022-10-13T06:51:54.812Z,98181.41
2022-10-13T06:54:23.319Z,98183.56
2022-10-13T06:56:50.819Z,98188.16
2022-10-13T06:59:17.977Z,98177.09
2022-10-13T07:01:45.086Z,98174.41
2022-10-13T07:04:12.581Z,98180.06
2022-10-13T07:06:39.692Z,98178.16
2022-10-13T07:09:08.030Z,98180.06
2022-10-13T07:11:36.559Z,98178.16
2022-10-13T07:14:03.683Z,98171.19
2022-10-13T07:16:31.049Z,98180.88
2022-10-13T07:18:58.140Z,98178.16
2022-10-13T07:21:25.905Z,98180.31
2022-10-13T07:23:53.020Z,98174.66
2022-10-13T07:26:20.265Z,98189.50
2022-10-13T07:28:48.815Z,98181.97
2022-10-13T07:31:18.300Z,98162.78
2022-10-13T07:33:48.312Z,98178.44
2022-10-13T07:36:15.440Z,98171.97
2022-10-13T07:38:42.555Z,98177.66
2022-10-13T07:41:11.123Z,98167.38
2022-10-13T07:43:38.621Z,98170.09
2022-10-13T07:46:08.187Z,98171.16
2022-10-13T07:48:35.935Z,98174.38
2022-10-13T07:51:04.602Z,98175.22
2022-10-13T07:53:31.773Z,98171.16
2022-10-13T07:56:00.294Z,98164.41
2022-10-13T07:58:28.012Z,98165.78
2022-10-13T08:00:59.427Z,98164.69
2022-10-13T08:03:28.977Z,98154.41
2022-10-13T08:05:59.023Z,98155.78
2022-10-13T08:08:26.345Z,98148.25
2022-10-13T08:13:25.949Z,98145.25
2022-10-13T08:15:53.082Z,98150.38
2022-10-13T08:18:20.218Z,98140.69
2022-10-13T08:20:48.673Z,98142.28
2022-10-13T08:23:15.811Z,98140.44
2022-10-13T08:25:44.225Z,98146.88
2022-10-13T08:28:17.191Z,98150.94
2022-10-13T08:30:44.549Z,98160.91
2022-10-13T08:33:12.164Z,98159.03
2022-10-13T08:35:39.699Z,98150.94
2022-10-13T08:38:08.542Z,98147.69
2022-10-13T08:40:37.035Z,98151.72
2022-10-13T08:43:06.888Z,98149.84
2022-10-13T08:45:41.301Z,98154.97
2022-10-13T08:48:14.087Z,98150.66
2022-10-13T08:50:44.041Z,98141.75
2022-10-13T08:53:18.955Z,98142.56
2022-10-13T08:55:50.822Z,98149.31
2022-10-13T08:58:24.514Z,98152.56
2022-10-13T09:01:00.642Z,98151.19
2022-10-13T09:03:29.687Z,98159.03
2022-10-13T09:06:06.872Z,98158.22
2022-10-13T09:08:40.642Z,98153.09
2022-10-13T09:11:10.712Z,98153.63
2022-10-13T09:13:38.431Z,98150.66
2022-10-13T09:16:06.312Z,98153.09
2022-10-13T09:18:34.253Z,98158.50
2022-10-13T09:21:25.416Z,98152.81
2022-10-13T09:24:06.324Z,98148.25
2022-10-13T09:26:37.890Z,98139.06
2022-10-13T09:29:09.727Z,98140.13
2022-10-13T09:31:37.468Z,98136.38
2022-10-13T09:34:14.967Z,98147.44
2022-10-13T09:36:57.420Z,98146.59
2022-10-13T09:39:26.581Z,98143.91
2022-10-13T09:42:18.864Z,98139.34
2022-10-13T09:44:47.096Z,98140.97
2022-10-13T09:47:20.746Z,98136.91
2022-10-13T09:50:04.818Z,98133.13
2022-10-13T09:52:34.988Z,98133.41
2022-10-13T09:55:31.315Z,98129.34
2022-10-13T09:58:06.048Z,98129.06
2022-10-13T10:00:33.576Z,98132.56
2022-10-13T10:03:05.451Z,98137.69
2022-10-13T10:05:42.358Z,98138.53
2022-10-13T10:08:14.515Z,98134.19
2022-10-13T10:10:41.975Z,98139.06
2022-10-13T10:13:12.431Z,98141.50
2022-10-13T10:15:51.256Z,98125.31
2022-10-13T10:18:23.116Z,98127.72
2022-10-13T10:21:00.637Z,98126.13
2022-10-13T10:23:42.621Z,98124.22
2022-10-13T10:26:20.720Z,98120.19
2022-10-13T10:29:04.882Z,98113.44
2022-10-13T10:31:55.197Z,98112.91
2022-10-13T10:34:35.123Z,98118.59
2022-10-13T10:37:15.087Z,98113.97
2022-10-13T10:39:47.947Z,98101.28
2022-10-13T10:42:42.132Z,98101.28
2022-10-13T10:45:17.807Z,98088.06
2022-10-13T10:47:47.615Z,98088.31
2022-10-13T10:50:17.568Z,98084.56
2022-10-13T10:52:53.529Z,98082.94
2022-10-13T10:55:27.289Z,98080.22
2022-10-13T10:58:04.508Z,98077.00
2022-10-13T11:00:37.522Z,98068.09
2022-10-13T11:03:15.786Z,98076.19
2022-10-13T11:06:20.869Z,98074.31
2022-10-13T11:08:49.167Z,98074.59
2022-10-13T11:11:38.469Z,98068.66
2022-10-13T11:14:25.653Z,98076.22
2022-10-13T11:17:17.639Z,98058.69
2022-10-13T11:19:45.763Z,98061.94
2022-10-13T11:22:15.416Z,98058.16
2022-10-13T11:24:51.232Z,98047.34
2022-10-13T11:27:27.717Z,98043.28
2022-10-13T11:29:56.959Z,98035.72
2022-10-13T11:32:45.568Z,98030.91
2022-10-13T11:35:21.762Z,98036.25
2022-10-13T11:38:07.817Z,98034.13
2022-10-13T11:40:44.514Z,98038.69
2022-10-13T11:43:28.380Z,98027.91
2022-10-13T11:46:14.809Z,98030.91
2022-10-13T11:49:10.391Z,98034.66
2022-10-13T11:52:01.004Z,98021.72
2022-10-13T11:54:34.231Z,98025.22
2022-10-13T11:57:01.391Z,98026.31
2022-10-13T11:59:31.083Z,98019.00
2022-10-13T12:02:06.406Z,98029.00
2022-10-13T12:04:34.880Z,98019.53
2022-10-13T12:07:03.953Z,98014.44
2022-10-13T12:09:32.731Z,98009.59
2022-10-13T12:12:03.044Z,98006.06
2022-10-13T12:14:35.648Z,98005.53
2022-10-13T12:17:03.133Z,97990.13
2022-10-13T12:19:31.948Z,97986.06
2022-10-13T12:22:01.725Z,97985.00
2022-10-13T12:24:30.642Z,97979.59
2022-10-13T12:26:58.637Z,97968.53
2022-10-13T12:29:27.468Z,97975.53
2022-10-13T12:31:55.455Z,97977.16
2022-10-13T12:34:25.254Z,97969.88
2022-10-13T12:36:55.974Z,97979.34
2022-10-13T12:39:25.625Z,97970.13
2022-10-13T12:41:53.625Z,97977.69
2022-10-13T12:44:22.824Z,97972.31
2022-10-13T12:46:51.668Z,97965.59
2022-10-13T12:49:21.904Z,97959.38
2022-10-13T12:51:50.762Z,97956.97
2022-10-13T12:54:26.674Z,97962.91
2022-10-13T12:56:57.397Z,97963.47
2022-10-13T12:59:26.514Z,97959.13
2022-10-13T13:01:56.893Z,97958.88
2022-10-13T13:04:47.697Z,97946.97
2022-10-13T13:07:30.290Z,97951.56
2022-10-13T13:10:19.334Z,97958.03
2022-10-13T13:12:47.737Z,97959.63
2022-10-13T13:15:28.064Z,97959.34
2022-10-13T13:18:15.543Z,97963.16
2022-10-13T13:20:44.073Z,97956.38
2022-10-13T13:23:11.156Z,97957.25
2022-10-13T13:25:38.250Z,97956.50
2022-10-13T13:28:12.173Z,97950.28
2022-10-13T13:30:39.300Z,97950.56
2022-10-13T13:33:06.806Z,97956.25
2022-10-13T13:35:34.345Z,97941.16
2022-10-13T13:38:04.378Z,97948.69
2022-10-13T13:40:31.485Z,97949.50
2022-10-13T13:42:58.753Z,97943.00
2022-10-13T13:45:25.838Z,97945.44
2022-10-13T13:47:54.950Z,97932.22
2022-10-13T13:50:26.848Z,97933.84
2022-10-13T13:52:54.248Z,97935.16
2022-10-13T13:55:22.685Z,97932.69
2022-10-13T13:57:49.803Z,97933.81
2022-10-13T14:00:17.926Z,97929.72
2022-10-13T14:02:45.532Z,97928.13
2022-10-13T14:05:13.300Z,97928.94
2022-10-13T14:07:40.944Z,97914.34
2022-10-13T14:10:10.423Z,97923.81
2022-10-13T14:12:39.139Z,97916.53
2022-10-13T14:15:07.386Z,97919.22
2022-10-13T14:17:34.484Z,97919.75
2022-10-13T14:20:01.686Z,97922.44
2022-10-13T14:22:28.865Z,97919.22
2022-10-13T14:24:55.980Z,97917.84
2022-10-13T14:27:23.120Z,97916.78
2022-10-13T14:29:51.552Z,97916.25
2022-10-13T14:32:18.907Z,97920.84
2022-10-13T14:34:46.310Z,97919.50
2022-10-13T14:37:13.431Z,97923.56
2022-10-13T14:39:40.528Z,97923.00
2022-10-13T14:42:07.641Z,97925.44
2022-10-13T14:44:34.749Z,97912.75
2022-10-13T14:47:03.240Z,97908.41
2022-10-13T14:49:30.522Z,97910.28
2022-10-13T14:51:57.619Z,97908.94
2022-10-13T14:54:25.680Z,97905.97
2022-10-13T14:56:53.348Z,97909.75
2022-10-13T14:59:20.466Z,97904.66
2022-10-13T15:01:49.004Z,97910.00
2022-10-13T15:04:17.462Z,97910.03
2022-10-13T15:06:44.599Z,97906.53
2022-10-13T15:09:11.713Z,97911.91
2022-10-13T15:11:38.948Z,97916.25
2022-10-13T15:14:06.073Z,97911.13
2022-10-13T15:16:33.362Z,97918.41
2022-10-13T15:19:01.465Z,97913.28
2022-10-13T15:21:30.176Z,97910.31
2022-10-13T15:23:57.534Z,97910.31
2022-10-13T15:26:24.702Z,97911.44
2022-10-13T15:28:53.213Z,97901.44
2022-10-13T15:31:22.207Z,97900.09
2022-10-13T15:33:51.261Z,97904.38
2022-10-13T15:36:19.131Z,97905.47
2022-10-13T15:38:47.562Z,97897.63
2022-10-13T15:41:14.727Z,97905.19
2022-10-13T15:43:41.926Z,97893.59
2022-10-13T15:46:12.462Z,97893.34
2022-10-13T15:48:39.921Z,97890.63
2022-10-13T15:51:13.170Z,97898.44
2022-10-13T15:53:40.440Z,97893.03
2022-10-13T15:56:09.242Z,97897.91
2022-10-13T15:58:36.442Z,97905.47
2022-10-13T16:01:07.286Z,97903.56
2022-10-13T16:03:34.469Z,97908.41
2022-10-13T16:06:04.233Z,97901.41
2022-10-13T16:08:31.418Z,97909.78
2022-10-13T16:10:58.509Z,97901.97
2022-10-13T16:13:27.019Z,97908.44
2022-10-13T16:15:57.501Z,97906.81
2022-10-13T16:18:28.948Z,97904.41
2022-10-13T16:20:56.281Z,97906.31
2022-10-13T16:23:23.684Z,97901.72
2022-10-13T16:25:50.868Z,97901.97
2022-10-13T16:28:18.021Z,97898.72
2022-10-13T16:30:46.549Z,97903.03
2022-10-13T16:33:13.651Z,97911.66
2022-10-13T16:35:40.740Z,97910.59
2022-10-13T16:38:07.862Z,97898.47
2022-10-13T16:40:37.226Z,97907.09
2022-10-13T16:43:04.468Z,97895.47
2022-10-13T16:45:55.117Z,97907.34
2022-10-13T16:48:20.096Z,97903.56
2022-10-13T16:50:47.247Z,97907.88
2022-10-13T16:53:14.363Z,97910.59
2022-10-13T16:55:42.104Z,97909.50
2022-10-13T16:58:09.753Z,97904.13
2022-10-13T17:00:37.594Z,97904.13
2022-10-13T17:03:05.307Z,97912.22
2022-10-13T17:05:34.348Z,97911.97
2022-10-13T17:08:01.451Z,97908.75
2022-10-13T17:10:28.677Z,97901.97
2022-10-13T17:12:55.782Z,97911.44
2022-10-13T17:15:22.874Z,97920.38
2022-10-13T17:17:49.978Z,97911.97
2022-10-13T17:20:17.230Z,97918.19
2022-10-13T17:22:45.677Z,97912.22
2022-10-13T17:25:12.797Z,97918.72
2022-10-13T17:27:39.912Z,97921.66
2022-10-13T17:30:08.102Z,97920.59
2022-10-13T17:32:37.051Z,97917.03
2022-10-13T17:35:04.605Z,97915.97
2022-10-13T17:37:31.804Z,97915.97
2022-10-13T17:40:00.245Z,97917.03
2022-10-13T17:42:29.017Z,97908.44
2022-10-13T17:44:56.475Z,97915.72
2022-10-13T17:47:23.722Z,97912.75
2022-10-13T17:49:51.029Z,97915.97
2022-10-13T17:52:18.201Z,97912.75
2022-10-13T17:54:45.293Z,97910.28
2022-10-13T17:57:13.778Z,97901.38
2022-10-13T17:59:40.876Z,97888.69
2022-10-13T18:02:09.131Z,97886.78
2022-10-13T18:04:36.369Z,97896.50
2022-10-13T18:07:03.618Z,97897.63
2022-10-13T18:09:30.716Z,97895.44
2022-10-13T18:11:58.021Z,97901.41
2022-10-13T18:14:26.484Z,97901.44
2022-10-13T18:16:54.060Z,97894.66
2022-10-13T18:19:21.518Z,97899.81
2022-10-13T18:21:49.034Z,97887.69
2022-10-13T18:24:16.287Z,97881.75
2022-10-13T18:26:43.406Z,97888.47
2022-10-13T18:29:12.065Z,97891.69
2022-10-13T18:31:41.735Z,97890.84
2022-10-13T18:34:12.961Z,97893.84
2022-10-13T18:36:42.004Z,97892.22
2022-10-13T18:39:12.923Z,97887.09
2022-10-13T18:41:40.837Z,97891.16
2022-10-13T18:44:08.753Z,97887.63
2022-10-13T18:46:38.043Z,97883.06
2022-10-13T18:49:10.453Z,97889.81
2022-10-13T18:51:37.911Z,97881.19
2022-10-13T18:54:06.157Z,97880.38
2022-10-13T18:56:34.797Z,97876.34
2022-10-13T18:59:02.067Z,97878.53
2022-10-13T19:01:31.515Z,97887.97
2022-10-13T19:03:59.637Z,97881.22
2022-10-13T19:06:29.109Z,97884.44
2022-10-13T19:08:57.875Z,97878.22
2022-10-13T19:11:25.035Z,97879.31
2022-10-13T19:13:52.571Z,97879.31
2022-10-13T19:16:22.289Z,97866.91
2022-10-13T19:18:49.890Z,97867.16
2022-10-13T19:21:17.580Z,97863.66
2022-10-13T19:23:46.428Z,97872.84
2022-10-13T19:26:15.577Z,97877.69
2022-10-13T19:28:43.226Z,97864.72
2022-10-13T19:31:11.478Z,97863.94
2022-10-13T19:33:44.263Z,97863.94
2022-10-13T19:36:20.937Z,97856.09
2022-10-13T19:38:49.701Z,97850.44
2022-10-13T19:41:16.943Z,97852.31
2022-10-13T19:43:44.258Z,97857.72
2022-10-13T19:46:11.417Z,97870.97
2022-10-13T19:48:38.578Z,97880.13
2022-10-13T19:51:07.310Z,97870.13
2022-10-13T19:53:35.399Z,97871.50
2022-10-13T19:56:04.951Z,97871.78
2022-10-13T19:58:32.293Z,97868.28
2022-10-13T20:01:03.185Z,97871.50
2022-10-13T20:03:30.368Z,97870.13
2022-10-13T20:05:57.751Z,97872.06
2022-10-13T20:08:24.827Z,97866.63
2022-10-13T20:10:51.955Z,97855.59
2022-10-13T20:13:20.434Z,97856.38
2022-10-13T20:15:47.619Z,97857.47
2022-10-13T20:18:14.723Z,97850.97
2022-10-13T20:20:42.061Z,97855.06
2022-10-13T20:23:09.471Z,97863.66
2022-10-13T20:25:37.020Z,97858.28
2022-10-13T20:28:04.337Z,97865.00
2022-10-13T20:30:33.355Z,97861.50
2022-10-13T20:33:00.722Z,97852.03
2022-10-13T20:35:27.977Z,97852.88
2022-10-13T20:37:55.210Z,97852.63
2022-10-13T20:40:22.341Z,97848.28
2022-10-13T20:42:50.309Z,97845.34
2022-10-13T20:45:17.683Z,97844.00
2022-10-13T20:47:46.152Z,97841.34
2022-10-13T20:50:13.262Z,97846.97
2022-10-13T20:52:40.356Z,97844.28
2022-10-13T20:55:08.172Z,97840.78
2022-10-13T20:57:35.386Z,97848.88
2022-10-13T21:00:03.106Z,97844.00
2022-10-13T21:02:30.204Z,97846.97
2022-10-13T21:04:58.663Z,97839.69
2022-10-13T21:07:25.756Z,97846.38
2022-10-13T21:09:53.973Z,97847.50
2022-10-13T21:12:21.269Z,97850.72
2022-10-13T21:14:48.381Z,97848.28
2022-10-13T21:17:15.481Z,97838.88
2022-10-13T21:19:42.742Z,97842.38
2022-10-13T21:22:11.229Z,97848.03
2022-10-13T21:24:38.335Z,97851.25
2022-10-13T21:27:05.455Z,97850.72
2022-10-13T21:29:32.544Z,97859.91
2022-10-13T21:31:59.634Z,97843.75
2022-10-13T21:34:26.749Z,97847.50
2022-10-13T21:36:53.828Z,97855.88
2022-10-13T21:39:22.254Z,97849.69
2022-10-13T21:41:49.383Z,97857.50
2022-10-13T21:44:16.488Z,97850.25
2022-10-13T21:46:43.615Z,97859.13
2022-10-13T21:49:10.728Z,97855.06
2022-10-13T21:51:39.887Z,97862.63
2022-10-13T21:54:09.797Z,97859.66
2022-10-13T21:56:39.486Z,97853.72
2022-10-13T21:59:07.861Z,97861.56
2022-10-13T22:01:35.005Z,97863.97
2022-10-13T22:04:03.162Z,97864.78
2022-10-13T22:06:31.675Z,97859.66
2022-10-13T22:09:00.272Z,97863.16
2022-10-13T22:11:30.971Z,97863.97
2022-10-13T22:13:59.841Z,97863.97
2022-10-13T22:16:29.267Z,97866.38
2022-10-13T22:18:57.842Z,97869.09
2022-10-13T22:21:27.705Z,97873.41
2022-10-13T22:23:57.046Z,97880.69
2022-10-13T22:26:24.210Z,97873.16
2022-10-13T22:28:51.411Z,97869.13
2022-10-13T22:31:20.006Z,97869.13
2022-10-13T22:33:47.151Z,97869.13
2022-10-13T22:36:16.604Z,97883.41
2022-10-13T22:38:44.223Z,97884.47
2022-10-13T22:41:12.054Z,97881.78
2022-10-13T22:43:39.142Z,97866.13
2022-10-13T22:46:06.462Z,97876.06
2022-10-13T22:48:40.360Z,97875.56
2022-10-13T22:51:08.749Z,97878.81
2022-10-13T22:53:35.935Z,97875.84
2022-10-13T22:56:06.037Z,97866.91
2022-10-13T22:58:33.533Z,97879.06
2022-10-13T23:01:05.387Z,97871.50
2022-10-13T23:03:32.592Z,97871.75
2022-10-13T23:06:01.082Z,97879.84
2022-10-13T23:08:28.226Z,97883.09
2022-10-13T23:10:55.316Z,97875.00
2022-10-13T23:13:22.556Z,97880.13
2022-10-13T23:15:49.679Z,97867.75
2022-10-13T23:18:16.899Z,97870.72
2022-10-13T23:20:44.402Z,97867.22
2022-10-13T23:23:13.117Z,97860.22
2022-10-13T23:25:40.224Z,97866.69
2022-10-13T23:28:07.345Z,97861.84
2022-10-13T23:30:34.492Z,97855.38
2022-10-13T23:33:01.577Z,97854.00
2022-10-13T23:35:28.710Z,97842.97
2022-10-13T23:37:55.864Z,97842.38
2022-10-13T23:40:24.314Z,97840.00
2022-10-13T23:42:51.402Z,97834.84
2022-10-13T23:45:18.621Z,97840.50
2022-10-13T23:47:45.695Z,97840.78
2022-10-13T23:50:12.786Z,97841.03
2022-10-13T23:52:39.919Z,97841.84
2022-10-13T23:55:07.679Z,97839.94
2022-10-13T23:57:36.220Z,97840.50
